sensor_id;sensor_type;location;lat;lon;timestamp;P1;durP1;ratioP1;P2;durP2;ratioP2
6519;SDS011;3293;51.690;5.982;2023-04-19T00:02:55;14.67;;;12.40;;
6519;SDS011;3293;51.690;5.982;2023-04-19T00:07:55;14.63;;;11.97;;
6519;SDS011;3293;51.690;5.982;2023-04-19T00:12:55;15.53;;;12.63;;
6519;SDS011;3293;51.690;5.982;2023-04-19T00:17:55;14.73;;;12.63;;
6519;SDS011;3293;51.690;5.982;2023-04-19T00:22:55;15.60;;;12.60;;
6519;SDS011;3293;51.690;5.982;2023-04-19T00:27:57;15.00;;;12.10;;
6519;SDS011;3293;51.690;5.982;2023-04-19T00:32:57;14.93;;;13.17;;
6519;SDS011;3293;51.690;5.982;2023-04-19T00:37:57;17.63;;;12.73;;
6519;SDS011;3293;51.690;5.982;2023-04-19T00:42:58;15.90;;;12.60;;
6519;SDS011;3293;51.690;5.982;2023-04-19T00:47:58;16.07;;;12.83;;
6519;SDS011;3293;51.690;5.982;2023-04-19T00:52:58;14.17;;;12.13;;
6519;SDS011;3293;51.690;5.982;2023-04-19T00:57:58;18.80;;;13.07;;
6519;SDS011;3293;51.690;5.982;2023-04-19T01:02:58;17.93;;;13.00;;
6519;SDS011;3293;51.690;5.982;2023-04-19T01:07:59;16.97;;;12.53;;
6519;SDS011;3293;51.690;5.982;2023-04-19T01:12:59;14.00;;;12.50;;
6519;SDS011;3293;51.690;5.982;2023-04-19T01:17:59;17.03;;;12.33;;
6519;SDS011;3293;51.690;5.982;2023-04-19T01:23:00;17.70;;;12.73;;
6519;SDS011;3293;51.690;5.982;2023-04-19T01:28:00;16.53;;;12.53;;
6519;SDS011;3293;51.690;5.982;2023-04-19T01:33:00;17.00;;;13.10;;
6519;SDS011;3293;51.690;5.982;2023-04-19T01:37:59;18.47;;;13.20;;
6519;SDS011;3293;51.690;5.982;2023-04-19T01:43:00;14.03;;;12.07;;
6519;SDS011;3293;51.690;5.982;2023-04-19T01:48:00;18.73;;;12.47;;
6519;SDS011;3293;51.690;5.982;2023-04-19T01:53:01;15.87;;;12.67;;
6519;SDS011;3293;51.690;5.982;2023-04-19T01:58:01;14.97;;;12.13;;
6519;SDS011;3293;51.690;5.982;2023-04-19T02:03:01;15.57;;;11.93;;
6519;SDS011;3293;51.690;5.982;2023-04-19T02:08:01;13.20;;;11.80;;
6519;SDS011;3293;51.690;5.982;2023-04-19T02:13:01;17.47;;;13.73;;
6519;SDS011;3293;51.690;5.982;2023-04-19T02:18:01;12.17;;;10.87;;
6519;SDS011;3293;51.690;5.982;2023-04-19T02:23:05;14.70;;;11.80;;
6519;SDS011;3293;51.690;5.982;2023-04-19T02:28:05;13.43;;;11.90;;
6519;SDS011;3293;51.690;5.982;2023-04-19T02:33:05;17.47;;;11.83;;
6519;SDS011;3293;51.690;5.982;2023-04-19T02:38:05;13.77;;;11.53;;
6519;SDS011;3293;51.690;5.982;2023-04-19T02:43:05;16.50;;;11.80;;
6519;SDS011;3293;51.690;5.982;2023-04-19T02:48:05;15.53;;;11.83;;
6519;SDS011;3293;51.690;5.982;2023-04-19T02:53:05;15.77;;;12.37;;
6519;SDS011;3293;51.690;5.982;2023-04-19T02:58:05;15.97;;;11.83;;
6519;SDS011;3293;51.690;5.982;2023-04-19T03:03:05;13.60;;;11.60;;
6519;SDS011;3293;51.690;5.982;2023-04-19T03:08:06;15.63;;;12.27;;
6519;SDS011;3293;51.690;5.982;2023-04-19T03:13:06;16.47;;;12.60;;
6519;SDS011;3293;51.690;5.982;2023-04-19T03:18:06;16.50;;;12.33;;
6519;SDS011;3293;51.690;5.982;2023-04-19T03:23:06;15.27;;;11.83;;
6519;SDS011;3293;51.690;5.982;2023-04-19T03:28:06;12.90;;;11.17;;
6519;SDS011;3293;51.690;5.982;2023-04-19T03:33:06;13.07;;;10.03;;
6519;SDS011;3293;51.690;5.982;2023-04-19T03:38:06;14.27;;;11.17;;
6519;SDS011;3293;51.690;5.982;2023-04-19T03:43:06;11.87;;;10.10;;
6519;SDS011;3293;51.690;5.982;2023-04-19T03:48:06;11.83;;;9.57;;
6519;SDS011;3293;51.690;5.982;2023-04-19T03:53:06;13.07;;;10.00;;
6519;SDS011;3293;51.690;5.982;2023-04-19T03:58:06;11.30;;;9.37;;
6519;SDS011;3293;51.690;5.982;2023-04-19T04:03:06;12.23;;;9.60;;
6519;SDS011;3293;51.690;5.982;2023-04-19T04:08:06;12.43;;;9.27;;
6519;SDS011;3293;51.690;5.982;2023-04-19T04:13:06;10.27;;;8.23;;
6519;SDS011;3293;51.690;5.982;2023-04-19T04:18:06;9.50;;;8.47;;
6519;SDS011;3293;51.690;5.982;2023-04-19T04:23:06;9.77;;;8.33;;
6519;SDS011;3293;51.690;5.982;2023-04-19T04:28:07;8.60;;;7.37;;
6519;SDS011;3293;51.690;5.982;2023-04-19T04:33:07;9.23;;;7.10;;
6519;SDS011;3293;51.690;5.982;2023-04-19T04:38:10;7.93;;;7.13;;
6519;SDS011;3293;51.690;5.982;2023-04-19T04:43:11;9.73;;;7.70;;
6519;SDS011;3293;51.690;5.982;2023-04-19T04:48:11;8.87;;;7.67;;
6519;SDS011;3293;51.690;5.982;2023-04-19T04:53:11;12.00;;;8.17;;
6519;SDS011;3293;51.690;5.982;2023-04-19T04:58:11;9.90;;;7.77;;
6519;SDS011;3293;51.690;5.982;2023-04-19T05:03:11;9.07;;;7.43;;
6519;SDS011;3293;51.690;5.982;2023-04-19T05:08:11;8.17;;;7.37;;
6519;SDS011;3293;51.690;5.982;2023-04-19T05:13:11;9.40;;;6.97;;
6519;SDS011;3293;51.690;5.982;2023-04-19T05:18:12;8.63;;;7.70;;
6519;SDS011;3293;51.690;5.982;2023-04-19T05:23:12;9.30;;;7.50;;
6519;SDS011;3293;51.690;5.982;2023-04-19T05:28:11;10.37;;;7.10;;
6519;SDS011;3293;51.690;5.982;2023-04-19T05:33:11;9.47;;;6.73;;
6519;SDS011;3293;51.690;5.982;2023-04-19T05:38:11;7.07;;;6.30;;
6519;SDS011;3293;51.690;5.982;2023-04-19T05:43:11;8.00;;;6.40;;
6519;SDS011;3293;51.690;5.982;2023-04-19T05:48:11;7.50;;;6.03;;
6519;SDS011;3293;51.690;5.982;2023-04-19T05:53:11;7.43;;;6.30;;
6519;SDS011;3293;51.690;5.982;2023-04-19T05:58:11;9.83;;;6.63;;
6519;SDS011;3293;51.690;5.982;2023-04-19T06:03:11;7.00;;;6.00;;
6519;SDS011;3293;51.690;5.982;2023-04-19T06:08:11;7.70;;;6.10;;
6519;SDS011;3293;51.690;5.982;2023-04-19T06:13:11;8.63;;;5.90;;
6519;SDS011;3293;51.690;5.982;2023-04-19T06:18:11;9.97;;;5.97;;
6519;SDS011;3293;51.690;5.982;2023-04-19T06:23:11;9.60;;;6.13;;
6519;SDS011;3293;51.690;5.982;2023-04-19T06:28:13;6.57;;;5.27;;
6519;SDS011;3293;51.690;5.982;2023-04-19T06:33:13;7.77;;;5.23;;
6519;SDS011;3293;51.690;5.982;2023-04-19T06:38:13;6.90;;;5.30;;
6519;SDS011;3293;51.690;5.982;2023-04-19T06:43:13;7.60;;;4.90;;
6519;SDS011;3293;51.690;5.982;2023-04-19T06:48:13;8.07;;;5.90;;
6519;SDS011;3293;51.690;5.982;2023-04-19T06:53:13;8.33;;;5.33;;
6519;SDS011;3293;51.690;5.982;2023-04-19T06:58:13;10.60;;;5.30;;
6519;SDS011;3293;51.690;5.982;2023-04-19T07:03:13;5.30;;;4.80;;
6519;SDS011;3293;51.690;5.982;2023-04-19T07:08:14;5.70;;;4.60;;
6519;SDS011;3293;51.690;5.982;2023-04-19T07:13:14;6.45;;;4.50;;
6519;SDS011;3293;51.690;5.982;2023-04-19T07:18:14;5.47;;;4.87;;
6519;SDS011;3293;51.690;5.982;2023-04-19T07:23:14;7.43;;;4.47;;
6519;SDS011;3293;51.690;5.982;2023-04-19T07:28:14;6.97;;;4.97;;
6519;SDS011;3293;51.690;5.982;2023-04-19T07:33:14;5.43;;;4.47;;
6519;SDS011;3293;51.690;5.982;2023-04-19T07:38:14;8.30;;;4.63;;
6519;SDS011;3293;51.690;5.982;2023-04-19T07:43:14;5.93;;;4.00;;
6519;SDS011;3293;51.690;5.982;2023-04-19T07:48:14;6.15;;;4.63;;
6519;SDS011;3293;51.690;5.982;2023-04-19T07:53:15;6.37;;;4.30;;
6519;SDS011;3293;51.690;5.982;2023-04-19T07:58:15;5.03;;;4.23;;
6519;SDS011;3293;51.690;5.982;2023-04-19T08:03:15;6.07;;;3.93;;
6519;SDS011;3293;51.690;5.982;2023-04-19T08:08:15;6.47;;;3.45;;
6519;SDS011;3293;51.690;5.982;2023-04-19T08:13:15;3.80;;;3.50;;
6519;SDS011;3293;51.690;5.982;2023-04-19T08:18:15;4.70;;;3.47;;
6519;SDS011;3293;51.690;5.982;2023-04-19T08:23:15;5.37;;;3.63;;
6519;SDS011;3293;51.690;5.982;2023-04-19T08:28:16;5.87;;;3.43;;
6519;SDS011;3293;51.690;5.982;2023-04-19T08:33:17;8.77;;;3.30;;
6519;SDS011;3293;51.690;5.982;2023-04-19T08:38:17;6.90;;;3.80;;
6519;SDS011;3293;51.690;5.982;2023-04-19T08:43:16;5.70;;;3.60;;
6519;SDS011;3293;51.690;5.982;2023-04-19T08:48:17;5.30;;;3.67;;
6519;SDS011;3293;51.690;5.982;2023-04-19T08:53:17;6.85;;;3.80;;
6519;SDS011;3293;51.690;5.982;2023-04-19T08:58:18;9.75;;;3.22;;
6519;SDS011;3293;51.690;5.982;2023-04-19T09:03:18;5.23;;;3.20;;
6519;SDS011;3293;51.690;5.982;2023-04-19T09:08:22;3.88;;;3.40;;
6519;SDS011;3293;51.690;5.982;2023-04-19T09:13:25;5.78;;;3.25;;
6519;SDS011;3293;51.690;5.982;2023-04-19T09:18:26;4.15;;;3.20;;
6519;SDS011;3293;51.690;5.982;2023-04-19T09:23:27;3.43;;;3.00;;
6519;SDS011;3293;51.690;5.982;2023-04-19T09:28:27;3.93;;;2.80;;
6519;SDS011;3293;51.690;5.982;2023-04-19T09:33:34;5.73;;;3.00;;
6519;SDS011;3293;51.690;5.982;2023-04-19T09:38:47;2.67;;;2.47;;
6519;SDS011;3293;51.690;5.982;2023-04-19T09:43:48;3.73;;;2.40;;
6519;SDS011;3293;51.690;5.982;2023-04-19T09:48:48;2.90;;;2.67;;
6519;SDS011;3293;51.690;5.982;2023-04-19T09:53:48;3.63;;;2.53;;
6519;SDS011;3293;51.690;5.982;2023-04-19T09:58:49;4.63;;;2.30;;
6519;SDS011;3293;51.690;5.982;2023-04-19T10:03:49;2.60;;;2.13;;
6519;SDS011;3293;51.690;5.982;2023-04-19T10:08:49;4.83;;;2.37;;
6519;SDS011;3293;51.690;5.982;2023-04-19T10:13:55;5.03;;;2.87;;
6519;SDS011;3293;51.690;5.982;2023-04-19T10:18:58;5.50;;;3.17;;
6519;SDS011;3293;51.690;5.982;2023-04-19T10:23:59;4.20;;;3.00;;
6519;SDS011;3293;51.690;5.982;2023-04-19T10:29:00;4.53;;;2.87;;
6519;SDS011;3293;51.690;5.982;2023-04-19T10:34:00;3.53;;;2.53;;
6519;SDS011;3293;51.690;5.982;2023-04-19T10:38:59;3.70;;;2.70;;
6519;SDS011;3293;51.690;5.982;2023-04-19T10:49:00;6.13;;;2.70;;
6519;SDS011;3293;51.690;5.982;2023-04-19T10:59:31;3.90;;;2.80;;
6519;SDS011;3293;51.690;5.982;2023-04-19T11:09:47;3.40;;;2.80;;
6519;SDS011;3293;51.690;5.982;2023-04-19T11:14:52;9.10;;;3.20;;
6519;SDS011;3293;51.690;5.982;2023-04-19T11:19:59;6.87;;;3.03;;
6519;SDS011;3293;51.690;5.982;2023-04-19T11:25:16;3.77;;;2.93;;
6519;SDS011;3293;51.690;5.982;2023-04-19T11:30:19;4.47;;;3.00;;
6519;SDS011;3293;51.690;5.982;2023-04-19T11:35:24;4.80;;;2.83;;
6519;SDS011;3293;51.690;5.982;2023-04-19T11:40:25;4.90;;;3.00;;
6519;SDS011;3293;51.690;5.982;2023-04-19T11:45:26;5.53;;;3.10;;
6519;SDS011;3293;51.690;5.982;2023-04-19T11:50:38;5.13;;;3.03;;
6519;SDS011;3293;51.690;5.982;2023-04-19T11:55:43;4.50;;;3.00;;
6519;SDS011;3293;51.690;5.982;2023-04-19T12:00:45;4.60;;;2.57;;
6519;SDS011;3293;51.690;5.982;2023-04-19T12:05:55;4.13;;;3.23;;
6519;SDS011;3293;51.690;5.982;2023-04-19T12:10:56;3.17;;;2.87;;
6519;SDS011;3293;51.690;5.982;2023-04-19T12:15:57;5.53;;;3.03;;
6519;SDS011;3293;51.690;5.982;2023-04-19T12:20:57;4.37;;;2.90;;
6519;SDS011;3293;51.690;5.982;2023-04-19T12:25:57;7.97;;;3.20;;
6519;SDS011;3293;51.690;5.982;2023-04-19T12:31:04;4.63;;;2.73;;
6519;SDS011;3293;51.690;5.982;2023-04-19T12:36:04;3.20;;;2.87;;
6519;SDS011;3293;51.690;5.982;2023-04-19T12:41:04;4.20;;;2.70;;
6519;SDS011;3293;51.690;5.982;2023-04-19T12:46:04;3.93;;;3.20;;
6519;SDS011;3293;51.690;5.982;2023-04-19T12:51:04;3.97;;;2.90;;
6519;SDS011;3293;51.690;5.982;2023-04-19T12:56:04;3.80;;;2.80;;
6519;SDS011;3293;51.690;5.982;2023-04-19T13:01:05;3.33;;;3.00;;
6519;SDS011;3293;51.690;5.982;2023-04-19T13:06:05;3.83;;;3.10;;
6519;SDS011;3293;51.690;5.982;2023-04-19T13:11:05;4.20;;;2.87;;
6519;SDS011;3293;51.690;5.982;2023-04-19T13:16:05;4.67;;;3.03;;
6519;SDS011;3293;51.690;5.982;2023-04-19T13:21:06;5.27;;;3.10;;
6519;SDS011;3293;51.690;5.982;2023-04-19T13:26:06;4.50;;;3.63;;
6519;SDS011;3293;51.690;5.982;2023-04-19T13:31:06;4.00;;;3.60;;
6519;SDS011;3293;51.690;5.982;2023-04-19T13:36:07;5.30;;;3.60;;
6519;SDS011;3293;51.690;5.982;2023-04-19T13:41:07;4.30;;;3.90;;
6519;SDS011;3293;51.690;5.982;2023-04-19T13:46:07;4.70;;;3.87;;
6519;SDS011;3293;51.690;5.982;2023-04-19T13:51:07;6.30;;;3.80;;
6519;SDS011;3293;51.690;5.982;2023-04-19T13:56:07;3.80;;;3.43;;
6519;SDS011;3293;51.690;5.982;2023-04-19T14:01:08;4.87;;;3.70;;
6519;SDS011;3293;51.690;5.982;2023-04-19T14:06:08;4.67;;;4.10;;
6519;SDS011;3293;51.690;5.982;2023-04-19T14:11:08;6.93;;;3.93;;
6519;SDS011;3293;51.690;5.982;2023-04-19T14:16:08;6.43;;;4.00;;
6519;SDS011;3293;51.690;5.982;2023-04-19T14:21:08;6.93;;;4.10;;
6519;SDS011;3293;51.690;5.982;2023-04-19T14:26:08;5.27;;;3.63;;
6519;SDS011;3293;51.690;5.982;2023-04-19T14:31:08;7.87;;;3.73;;
6519;SDS011;3293;51.690;5.982;2023-04-19T14:36:08;5.50;;;3.73;;
6519;SDS011;3293;51.690;5.982;2023-04-19T14:41:08;6.73;;;4.03;;
6519;SDS011;3293;51.690;5.982;2023-04-19T14:46:08;5.73;;;4.67;;
6519;SDS011;3293;51.690;5.982;2023-04-19T14:51:08;7.03;;;4.03;;
6519;SDS011;3293;51.690;5.982;2023-04-19T14:56:08;4.93;;;3.93;;
6519;SDS011;3293;51.690;5.982;2023-04-19T15:01:09;7.17;;;4.40;;
6519;SDS011;3293;51.690;5.982;2023-04-19T15:06:10;6.90;;;4.50;;
6519;SDS011;3293;51.690;5.982;2023-04-19T15:11:10;6.60;;;5.00;;
6519;SDS011;3293;51.690;5.982;2023-04-19T15:16:10;9.00;;;5.13;;
6519;SDS011;3293;51.690;5.982;2023-04-19T15:21:10;7.07;;;4.67;;
6519;SDS011;3293;51.690;5.982;2023-04-19T15:26:10;6.10;;;4.73;;
6519;SDS011;3293;51.690;5.982;2023-04-19T15:31:10;9.57;;;5.17;;
6519;SDS011;3293;51.690;5.982;2023-04-19T15:36:10;8.30;;;4.53;;
6519;SDS011;3293;51.690;5.982;2023-04-19T15:41:10;5.73;;;4.57;;
6519;SDS011;3293;51.690;5.982;2023-04-19T15:46:13;4.70;;;4.30;;
6519;SDS011;3293;51.690;5.982;2023-04-19T15:51:13;6.97;;;4.30;;
6519;SDS011;3293;51.690;5.982;2023-04-19T15:56:14;6.60;;;4.27;;
6519;SDS011;3293;51.690;5.982;2023-04-19T16:01:14;5.53;;;4.10;;
6519;SDS011;3293;51.690;5.982;2023-04-19T16:06:14;6.07;;;4.27;;
6519;SDS011;3293;51.690;5.982;2023-04-19T16:11:15;5.60;;;3.73;;
6519;SDS011;3293;51.690;5.982;2023-04-19T16:16:15;4.90;;;4.33;;
6519;SDS011;3293;51.690;5.982;2023-04-19T16:21:15;6.07;;;3.70;;
6519;SDS011;3293;51.690;5.982;2023-04-19T16:26:15;5.97;;;3.43;;
6519;SDS011;3293;51.690;5.982;2023-04-19T16:31:15;6.30;;;3.70;;
6519;SDS011;3293;51.690;5.982;2023-04-19T16:36:15;5.50;;;3.70;;
6519;SDS011;3293;51.690;5.982;2023-04-19T16:41:15;3.77;;;3.40;;
6519;SDS011;3293;51.690;5.982;2023-04-19T16:46:15;4.50;;;3.37;;
6519;SDS011;3293;51.690;5.982;2023-04-19T16:51:15;4.07;;;3.67;;
6519;SDS011;3293;51.690;5.982;2023-04-19T16:56:15;3.67;;;3.37;;
6519;SDS011;3293;51.690;5.982;2023-04-19T17:01:15;7.07;;;3.37;;
6519;SDS011;3293;51.690;5.982;2023-04-19T17:06:16;3.53;;;3.23;;
6519;SDS011;3293;51.690;5.982;2023-04-19T17:11:16;5.40;;;2.90;;
6519;SDS011;3293;51.690;5.982;2023-04-19T17:16:16;3.97;;;3.50;;
6519;SDS011;3293;51.690;5.982;2023-04-19T17:21:16;3.00;;;2.77;;
6519;SDS011;3293;51.690;5.982;2023-04-19T17:26:16;3.63;;;2.70;;
6519;SDS011;3293;51.690;5.982;2023-04-19T17:31:16;4.23;;;2.97;;
6519;SDS011;3293;51.690;5.982;2023-04-19T17:36:16;4.07;;;3.03;;
6519;SDS011;3293;51.690;5.982;2023-04-19T17:41:16;5.90;;;3.10;;
6519;SDS011;3293;51.690;5.982;2023-04-19T17:46:16;5.40;;;3.20;;
6519;SDS011;3293;51.690;5.982;2023-04-19T17:51:17;3.10;;;2.80;;
6519;SDS011;3293;51.690;5.982;2023-04-19T17:56:17;4.67;;;3.10;;
6519;SDS011;3293;51.690;5.982;2023-04-19T18:01:17;6.20;;;3.17;;
6519;SDS011;3293;51.690;5.982;2023-04-19T18:06:17;3.37;;;3.07;;
6519;SDS011;3293;51.690;5.982;2023-04-19T18:11:19;5.73;;;3.60;;
6519;SDS011;3293;51.690;5.982;2023-04-19T18:16:20;3.17;;;2.87;;
6519;SDS011;3293;51.690;5.982;2023-04-19T18:21:20;4.17;;;2.77;;
6519;SDS011;3293;51.690;5.982;2023-04-19T18:26:20;5.67;;;2.97;;
6519;SDS011;3293;51.690;5.982;2023-04-19T18:31:20;5.03;;;3.33;;
6519;SDS011;3293;51.690;5.982;2023-04-19T18:36:20;5.87;;;3.40;;
6519;SDS011;3293;51.690;5.982;2023-04-19T18:41:22;9.27;;;4.10;;
6519;SDS011;3293;51.690;5.982;2023-04-19T18:46:22;4.33;;;3.50;;
6519;SDS011;3293;51.690;5.982;2023-04-19T18:51:22;5.60;;;3.60;;
6519;SDS011;3293;51.690;5.982;2023-04-19T18:56:22;3.83;;;3.10;;
6519;SDS011;3293;51.690;5.982;2023-04-19T19:01:22;3.50;;;3.13;;
6519;SDS011;3293;51.690;5.982;2023-04-19T19:06:22;5.93;;;3.67;;
6519;SDS011;3293;51.690;5.982;2023-04-19T19:11:23;4.83;;;3.57;;
6519;SDS011;3293;51.690;5.982;2023-04-19T19:16:23;4.67;;;3.90;;
6519;SDS011;3293;51.690;5.982;2023-04-19T19:21:23;8.33;;;3.37;;
6519;SDS011;3293;51.690;5.982;2023-04-19T19:26:23;3.50;;;2.90;;
6519;SDS011;3293;51.690;5.982;2023-04-19T19:31:24;4.03;;;3.40;;
6519;SDS011;3293;51.690;5.982;2023-04-19T19:36:24;8.83;;;4.67;;
6519;SDS011;3293;51.690;5.982;2023-04-19T19:41:24;5.73;;;3.67;;
6519;SDS011;3293;51.690;5.982;2023-04-19T19:46:24;7.90;;;3.77;;
6519;SDS011;3293;51.690;5.982;2023-04-19T19:51:24;5.97;;;3.97;;
6519;SDS011;3293;51.690;5.982;2023-04-19T19:56:26;8.93;;;4.20;;
6519;SDS011;3293;51.690;5.982;2023-04-19T20:01:26;6.77;;;4.10;;
6519;SDS011;3293;51.690;5.982;2023-04-19T20:06:27;6.17;;;3.93;;
6519;SDS011;3293;51.690;5.982;2023-04-19T20:11:30;7.30;;;4.07;;
6519;SDS011;3293;51.690;5.982;2023-04-19T20:16:30;6.90;;;4.10;;
6519;SDS011;3293;51.690;5.982;2023-04-19T20:21:31;4.03;;;3.63;;
6519;SDS011;3293;51.690;5.982;2023-04-19T20:26:31;5.37;;;4.00;;
6519;SDS011;3293;51.690;5.982;2023-04-19T20:31:31;8.90;;;4.13;;
6519;SDS011;3293;51.690;5.982;2023-04-19T20:36:31;6.20;;;3.70;;
6519;SDS011;3293;51.690;5.982;2023-04-19T20:41:31;5.43;;;4.20;;
6519;SDS011;3293;51.690;5.982;2023-04-19T20:46:33;5.87;;;4.33;;
6519;SDS011;3293;51.690;5.982;2023-04-19T20:51:33;7.53;;;3.83;;
6519;SDS011;3293;51.690;5.982;2023-04-19T20:56:34;9.70;;;4.17;;
6519;SDS011;3293;51.690;5.982;2023-04-19T21:01:35;3.93;;;3.47;;
6519;SDS011;3293;51.690;5.982;2023-04-19T21:06:36;5.07;;;3.83;;
6519;SDS011;3293;51.690;5.982;2023-04-19T21:11:37;6.60;;;4.00;;
6519;SDS011;3293;51.690;5.982;2023-04-19T21:16:38;8.87;;;4.17;;
6519;SDS011;3293;51.690;5.982;2023-04-19T21:21:38;7.70;;;3.80;;
6519;SDS011;3293;51.690;5.982;2023-04-19T21:26:38;5.63;;;3.50;;
6519;SDS011;3293;51.690;5.982;2023-04-19T21:31:37;9.07;;;3.43;;
6519;SDS011;3293;51.690;5.982;2023-04-19T21:36:37;6.57;;;3.60;;
6519;SDS011;3293;51.690;5.982;2023-04-19T21:41:37;5.27;;;3.77;;
6519;SDS011;3293;51.690;5.982;2023-04-19T21:46:37;4.67;;;3.30;;
6519;SDS011;3293;51.690;5.982;2023-04-19T21:51:37;7.00;;;4.00;;
6519;SDS011;3293;51.690;5.982;2023-04-19T21:56:37;7.00;;;3.73;;
6519;SDS011;3293;51.690;5.982;2023-04-19T22:01:37;7.77;;;3.80;;
6519;SDS011;3293;51.690;5.982;2023-04-19T22:06:37;6.53;;;3.57;;
6519;SDS011;3293;51.690;5.982;2023-04-19T22:11:38;7.47;;;3.50;;
6519;SDS011;3293;51.690;5.982;2023-04-19T22:16:38;6.20;;;3.23;;
6519;SDS011;3293;51.690;5.982;2023-04-19T22:21:40;5.00;;;3.37;;
6519;SDS011;3293;51.690;5.982;2023-04-19T22:26:40;4.00;;;3.40;;
6519;SDS011;3293;51.690;5.982;2023-04-19T22:31:40;4.73;;;3.27;;
6519;SDS011;3293;51.690;5.982;2023-04-19T22:36:40;5.90;;;3.50;;
6519;SDS011;3293;51.690;5.982;2023-04-19T22:41:40;5.43;;;3.03;;
6519;SDS011;3293;51.690;5.982;2023-04-19T22:46:40;5.47;;;3.50;;
6519;SDS011;3293;51.690;5.982;2023-04-19T22:51:40;3.33;;;2.83;;
6519;SDS011;3293;51.690;5.982;2023-04-19T22:56:40;5.10;;;3.40;;
6519;SDS011;3293;51.690;5.982;2023-04-19T23:01:40;5.73;;;3.50;;
6519;SDS011;3293;51.690;5.982;2023-04-19T23:06:41;3.60;;;3.23;;
6519;SDS011;3293;51.690;5.982;2023-04-19T23:11:42;8.20;;;3.50;;
6519;SDS011;3293;51.690;5.982;2023-04-19T23:16:43;3.77;;;3.17;;
6519;SDS011;3293;51.690;5.982;2023-04-19T23:21:47;4.87;;;3.37;;
6519;SDS011;3293;51.690;5.982;2023-04-19T23:26:48;6.57;;;3.43;;
6519;SDS011;3293;51.690;5.982;2023-04-19T23:31:48;4.90;;;3.20;;
6519;SDS011;3293;51.690;5.982;2023-04-19T23:36:48;6.73;;;3.17;;
6519;SDS011;3293;51.690;5.982;2023-04-19T23:41:48;4.33;;;3.50;;
6519;SDS011;3293;51.690;5.982;2023-04-19T23:46:48;3.13;;;2.80;;
6519;SDS011;3293;51.690;5.982;2023-04-19T23:51:48;4.43;;;3.50;;
6519;SDS011;3293;51.690;5.982;2023-04-19T23:56:48;5.50;;;4.20;;
